createdAt,value
2023-05-04T00:00:39.881Z,35.70
2023-05-04T00:03:07.863Z,35.60
2023-05-04T00:05:35.950Z,35.60
2023-05-04T00:08:04.023Z,35.60
2023-05-04T00:10:33.373Z,35.70
2023-05-04T00:13:01.644Z,35.70
2023-05-04T00:15:30.434Z,35.80
2023-05-04T00:17:58.395Z,35.70
2023-05-04T00:20:26.726Z,35.80
2023-05-04T00:22:54.631Z,35.70
2023-05-04T00:25:22.571Z,35.60
2023-05-04T00:27:51.832Z,35.60
2023-05-04T00:30:20.814Z,35.60
2023-05-04T00:32:48.853Z,35.70
2023-05-04T00:35:16.946Z,35.60
2023-05-04T00:37:46.462Z,35.40
2023-05-04T00:40:14.546Z,35.70
2023-05-04T00:42:42.852Z,35.60
2023-05-04T00:45:12.662Z,35.50
2023-05-04T00:47:41.211Z,35.60
2023-05-04T00:50:10.320Z,35.40
2023-05-04T00:52:38.330Z,35.70
2023-05-04T00:55:07.073Z,35.60
2023-05-04T00:57:34.957Z,35.50
2023-05-04T01:00:03.724Z,35.50
2023-05-04T01:02:33.317Z,35.60
2023-05-04T01:05:01.647Z,35.60
2023-05-04T01:07:32.433Z,35.60
2023-05-04T01:10:03.857Z,35.60
2023-05-04T01:12:35.009Z,35.60
2023-05-04T01:15:03.528Z,35.50
2023-05-04T01:17:32.850Z,35.60
2023-05-04T01:20:00.733Z,35.70
2023-05-04T01:22:30.243Z,35.60
2023-05-04T01:24:58.148Z,35.60
2023-05-04T01:27:28.684Z,35.50
2023-05-04T01:29:59.288Z,35.60
2023-05-04T01:32:28.002Z,35.60
2023-05-04T01:34:55.914Z,35.60
2023-05-04T01:37:23.975Z,35.50
2023-05-04T01:39:53.448Z,35.50
2023-05-04T01:42:21.316Z,35.50
2023-05-04T01:44:49.257Z,35.50
2023-05-04T01:47:17.146Z,35.50
2023-05-04T01:49:45.497Z,35.40
2023-05-04T01:52:13.537Z,35.60
2023-05-04T01:54:42.070Z,35.60
2023-05-04T01:57:11.462Z,35.60
2023-05-04T01:59:39.913Z,35.60
2023-05-04T02:02:07.882Z,35.60
2023-05-04T02:04:36.429Z,35.60
2023-05-04T02:07:04.407Z,35.60
2023-05-04T02:09:32.965Z,35.70
2023-05-04T02:12:00.829Z,35.60
2023-05-04T02:14:30.847Z,35.60
2023-05-04T02:16:58.697Z,35.70
2023-05-04T02:19:26.785Z,35.70
2023-05-04T02:21:54.779Z,35.50
2023-05-04T02:24:22.843Z,35.50
2023-05-04T02:26:51.377Z,35.50
2023-05-04T02:29:19.462Z,35.50
2023-05-04T02:31:49.418Z,35.60
2023-05-04T02:34:17.686Z,35.50
2023-05-04T02:36:46.214Z,35.60
2023-05-04T02:39:14.669Z,35.60
2023-05-04T02:41:42.728Z,35.60
2023-05-04T02:44:11.334Z,35.60
2023-05-04T02:46:39.296Z,35.60
2023-05-04T02:49:09.038Z,35.60
2023-05-04T02:51:37.158Z,35.50
2023-05-04T02:54:05.837Z,35.60
2023-05-04T02:56:33.904Z,35.60
2023-05-04T02:59:02.435Z,35.60
2023-05-04T03:01:31.634Z,35.60
2023-05-04T03:04:01.974Z,35.60
2023-05-04T03:06:32.278Z,35.70
2023-05-04T03:09:00.749Z,35.50
2023-05-04T03:11:29.256Z,35.60
2023-05-04T03:13:57.246Z,35.50
2023-05-04T03:16:25.697Z,35.50
2023-05-04T03:18:53.635Z,35.50
2023-05-04T03:21:22.308Z,35.60
2023-05-04T03:23:51.716Z,35.50
2023-05-04T03:26:20.201Z,35.70
2023-05-04T03:28:48.387Z,35.80
2023-05-04T03:31:16.784Z,35.70
2023-05-04T03:33:44.760Z,35.70
2023-05-04T03:36:13.144Z,35.60
2023-05-04T03:38:41.793Z,35.80
2023-05-04T03:41:12.250Z,35.70
2023-05-04T03:43:40.306Z,35.70
2023-05-04T03:46:08.827Z,35.80
2023-05-04T03:48:36.759Z,35.70
2023-05-04T03:51:04.825Z,35.70
2023-05-04T03:53:34.396Z,35.90
2023-05-04T03:56:02.627Z,35.80
2023-05-04T03:58:32.493Z,36.00
2023-05-04T04:01:00.437Z,36.00
2023-05-04T04:03:28.928Z,35.80
2023-05-04T04:05:57.415Z,35.80
2023-05-04T04:08:25.436Z,35.90
2023-05-04T04:10:54.002Z,36.00
2023-05-04T04:13:22.350Z,36.00
2023-05-04T04:15:51.772Z,35.90
2023-05-04T04:18:20.147Z,35.80
2023-05-04T04:20:48.113Z,36.00
2023-05-04T04:23:18.879Z,35.90
2023-05-04T04:25:46.955Z,35.90
2023-05-04T04:28:15.195Z,36.00
2023-05-04T04:30:43.096Z,35.90
2023-05-04T04:33:12.519Z,35.90
2023-05-04T04:35:41.687Z,36.00
2023-05-04T04:38:10.350Z,36.00
2023-05-04T04:40:38.240Z,35.90
2023-05-04T04:43:06.579Z,36.10
2023-05-04T04:45:35.201Z,36.00
2023-05-04T04:48:04.482Z,35.90
2023-05-04T04:50:33.881Z,35.90
2023-05-04T04:53:01.846Z,35.90
2023-05-04T04:55:30.153Z,35.80
2023-05-04T04:57:58.096Z,35.80
2023-05-04T05:00:26.724Z,35.80
2023-05-04T05:02:55.466Z,35.80
2023-05-04T05:05:23.437Z,35.80
2023-05-04T05:07:53.076Z,35.90
2023-05-04T05:10:21.877Z,35.70
2023-05-04T05:12:50.656Z,35.80
2023-05-04T05:15:19.123Z,35.70
2023-05-04T05:17:47.150Z,36.00
2023-05-04T05:20:15.358Z,35.80
2023-05-04T05:22:43.764Z,35.70
2023-05-04T05:25:13.425Z,35.80
2023-05-04T05:27:41.487Z,35.70
2023-05-04T05:30:10.094Z,35.70
2023-05-04T05:32:38.640Z,35.80
2023-05-04T05:35:08.020Z,35.80
2023-05-04T05:37:35.985Z,35.70
2023-05-04T05:40:07.155Z,35.70
2023-05-04T05:42:36.845Z,35.80
2023-05-04T05:45:05.203Z,35.60
2023-05-04T05:47:33.131Z,35.80
2023-05-04T05:50:01.043Z,35.80
2023-05-04T05:52:28.900Z,35.80
2023-05-04T05:54:56.796Z,35.80
2023-05-04T05:57:24.735Z,35.80
2023-05-04T05:59:54.204Z,36.00
2023-05-04T06:02:22.273Z,35.90
2023-05-04T06:04:50.470Z,36.00
2023-05-04T06:07:19.462Z,35.90
2023-05-04T06:09:47.382Z,36.10
2023-05-04T06:12:17.144Z,36.00
2023-05-04T06:14:45.621Z,36.00
2023-05-04T06:17:14.931Z,36.10
2023-05-04T06:19:42.787Z,36.10
2023-05-04T06:22:10.670Z,36.00
2023-05-04T06:24:38.514Z,36.00
2023-05-04T06:27:06.552Z,36.10
2023-05-04T06:29:34.574Z,36.00
2023-05-04T06:32:03.346Z,36.00
2023-05-04T06:34:32.743Z,35.70
2023-05-04T06:37:00.776Z,35.90
2023-05-04T06:39:28.700Z,35.90
2023-05-04T06:41:57.616Z,35.90
2023-05-04T06:44:25.848Z,35.80
2023-05-04T06:46:53.983Z,35.90
2023-05-04T06:49:22.419Z,36.00
2023-05-04T06:51:51.744Z,36.60
2023-05-04T06:54:19.794Z,36.00
2023-05-04T06:56:47.700Z,36.00
2023-05-04T06:59:16.957Z,36.10
2023-05-04T07:01:45.484Z,36.10
2023-05-04T07:04:13.816Z,36.10
2023-05-04T07:06:42.399Z,36.10
2023-05-04T07:09:12.065Z,36.20
2023-05-04T07:11:40.424Z,36.20
2023-05-04T07:14:10.384Z,36.00
2023-05-04T07:16:38.983Z,36.30
2023-05-04T07:19:07.153Z,36.20
2023-05-04T07:21:35.366Z,36.40
2023-05-04T07:24:04.896Z,36.30
2023-05-04T07:26:34.354Z,36.30
2023-05-04T07:29:02.758Z,36.60
2023-05-04T07:31:31.011Z,36.40
2023-05-04T07:33:59.528Z,36.60
2023-05-04T07:36:27.927Z,36.70
2023-05-04T07:38:56.925Z,36.80
2023-05-04T07:41:24.996Z,36.80
2023-05-04T07:43:54.466Z,36.90
2023-05-04T07:46:22.821Z,37.00
2023-05-04T07:48:51.409Z,38.80
2023-05-04T07:51:20.001Z,39.50
2023-05-04T07:53:48.511Z,39.70
2023-05-04T07:56:16.517Z,40.00
2023-05-04T07:58:46.276Z,39.70
2023-05-04T08:01:17.209Z,39.60
2023-05-04T08:03:45.358Z,39.70
2023-05-04T08:06:13.485Z,39.50
2023-05-04T08:08:41.533Z,39.50
2023-05-04T08:11:19.907Z,39.30
2023-05-04T08:13:49.781Z,39.50
2023-05-04T08:16:19.311Z,39.50
2023-05-04T08:18:47.376Z,39.10
2023-05-04T08:21:15.658Z,39.10
2023-05-04T08:23:43.666Z,39.20
2023-05-04T08:26:11.702Z,38.60
2023-05-04T08:28:40.509Z,39.10
2023-05-04T08:31:09.250Z,39.00
2023-05-04T08:33:38.949Z,38.30
2023-05-04T08:36:09.085Z,39.20
2023-05-04T08:38:37.104Z,38.80
2023-05-04T08:41:05.642Z,38.50
2023-05-04T08:43:35.778Z,40.40
2023-05-04T08:46:05.661Z,39.40
2023-05-04T08:48:35.045Z,38.60
2023-05-04T08:51:05.438Z,37.80
2023-05-04T08:53:34.673Z,37.20
2023-05-04T08:56:04.687Z,36.90
2023-05-04T08:58:33.432Z,36.60
2023-05-04T09:01:01.570Z,36.50
2023-05-04T09:03:29.807Z,36.20
2023-05-04T09:05:58.311Z,36.00
2023-05-04T09:08:27.937Z,35.20
2023-05-04T09:10:56.472Z,35.40
2023-05-04T09:13:24.331Z,35.20
2023-05-04T09:15:56.605Z,35.50
2023-05-04T09:18:24.492Z,36.10
2023-05-04T09:20:52.735Z,35.10
2023-05-04T09:23:22.492Z,34.80
2023-05-04T09:25:53.339Z,33.70
2023-05-04T09:28:21.959Z,33.00
2023-05-04T09:30:50.041Z,34.00
2023-05-04T09:33:18.858Z,34.70
2023-05-04T09:35:46.862Z,34.50
2023-05-04T09:38:27.014Z,34.50
2023-05-04T09:40:56.516Z,34.10
2023-05-04T09:43:24.597Z,33.00
2023-05-04T09:45:52.603Z,32.70
2023-05-04T09:48:21.561Z,33.10
2023-05-04T09:50:50.801Z,31.70
2023-05-04T09:53:19.290Z,32.50
2023-05-04T09:55:47.276Z,32.80
2023-05-04T09:58:18.434Z,32.70
2023-05-04T10:00:47.078Z,31.90
2023-05-04T10:03:15.005Z,31.80
2023-05-04T10:05:43.481Z,31.50
2023-05-04T10:08:11.760Z,31.10
2023-05-04T10:10:40.111Z,30.70
2023-05-04T10:13:08.068Z,30.90
2023-05-04T10:15:38.405Z,30.80
2023-05-04T10:18:20.836Z,30.90
2023-05-04T10:20:58.682Z,30.50
2023-05-04T10:23:49.752Z,30.80
2023-05-04T10:26:28.358Z,30.30
2023-05-04T10:29:01.329Z,30.20
2023-05-04T10:31:40.165Z,30.30
2023-05-04T10:34:08.564Z,29.70
2023-05-04T10:36:37.832Z,29.60
2023-05-04T10:39:06.471Z,29.30
2023-05-04T10:41:34.583Z,29.60
2023-05-04T10:44:05.514Z,29.50
2023-05-04T10:46:33.559Z,29.00
2023-05-04T10:49:04.276Z,29.80
2023-05-04T10:51:39.051Z,29.70
2023-05-04T10:54:20.034Z,28.90
2023-05-04T10:56:48.338Z,28.60
2023-05-04T10:59:16.246Z,28.50
2023-05-04T11:01:45.000Z,28.30
2023-05-04T11:04:21.535Z,27.90
2023-05-04T11:06:57.904Z,28.10
2023-05-04T11:09:26.726Z,28.20
2023-05-04T11:11:55.496Z,28.90
2023-05-04T11:14:25.787Z,28.60
2023-05-04T11:16:53.873Z,28.10
2023-05-04T11:19:23.245Z,28.00
2023-05-04T11:21:51.271Z,27.90
2023-05-04T11:24:19.759Z,27.80
2023-05-04T11:26:49.134Z,25.70
2023-05-04T11:29:17.814Z,26.60
2023-05-04T11:31:55.521Z,27.30
2023-05-04T11:34:24.929Z,26.90
2023-05-04T11:36:54.652Z,26.30
2023-05-04T11:39:22.751Z,27.00
2023-05-04T11:41:51.793Z,27.30
2023-05-04T11:44:20.393Z,26.50
2023-05-04T11:46:52.185Z,26.40
2023-05-04T11:49:20.445Z,25.30
2023-05-04T11:51:50.312Z,25.80
2023-05-04T11:54:22.219Z,25.00
2023-05-04T11:56:50.528Z,26.70
2023-05-04T11:59:20.666Z,26.00
2023-05-04T12:01:49.487Z,25.20
2023-05-04T12:04:17.391Z,25.50
2023-05-04T12:06:46.928Z,26.50
2023-05-04T12:09:16.545Z,26.10
2023-05-04T12:11:44.448Z,25.60
2023-05-04T12:14:13.837Z,25.90
2023-05-04T12:16:43.036Z,24.00
2023-05-04T12:19:12.690Z,24.90
2023-05-04T12:21:50.717Z,25.20
2023-05-04T12:24:22.163Z,25.00
2023-05-04T12:26:50.134Z,24.20
2023-05-04T12:29:18.669Z,22.90
2023-05-04T12:31:47.069Z,22.50
2023-05-04T12:34:14.967Z,22.20
2023-05-04T12:36:44.769Z,22.00
2023-05-04T12:39:13.113Z,22.50
2023-05-04T12:41:42.391Z,22.80
2023-05-04T12:44:11.989Z,22.60
2023-05-04T12:46:39.966Z,22.50
2023-05-04T12:49:07.800Z,22.70
2023-05-04T12:51:35.761Z,23.80
2023-05-04T12:54:03.602Z,23.10
2023-05-04T12:56:32.533Z,22.80
2023-05-04T12:59:02.004Z,22.40
2023-05-04T13:01:30.372Z,22.20
2023-05-04T13:03:58.428Z,21.70
2023-05-04T13:06:26.912Z,20.80
2023-05-04T13:08:54.734Z,20.70
2023-05-04T13:11:22.955Z,20.60
2023-05-04T13:13:50.868Z,19.40
2023-05-04T13:16:20.689Z,19.50
2023-05-04T13:18:49.090Z,19.60
2023-05-04T13:21:16.968Z,19.90
2023-05-04T13:23:44.900Z,20.40
2023-05-04T13:26:12.771Z,20.70
2023-05-04T13:28:41.048Z,21.00
2023-05-04T13:31:10.057Z,21.30
2023-05-04T13:33:39.771Z,21.50
2023-05-04T13:36:08.566Z,22.10
2023-05-04T13:38:37.029Z,22.60
2023-05-04T13:41:04.935Z,22.60
2023-05-04T13:43:33.285Z,23.20
2023-05-04T13:46:04.122Z,23.50
2023-05-04T13:48:33.726Z,23.00
2023-05-04T13:51:03.619Z,23.40
2023-05-04T13:53:31.942Z,23.40
2023-05-04T13:56:00.093Z,23.60
2023-05-04T13:58:28.062Z,23.30
2023-05-04T14:00:58.232Z,23.30
2023-05-04T14:03:26.667Z,23.60
2023-05-04T14:05:54.568Z,24.00
2023-05-04T14:08:23.809Z,24.30
2023-05-04T14:10:52.242Z,24.40
2023-05-04T14:13:20.156Z,24.70
2023-05-04T14:15:48.707Z,24.70
2023-05-04T14:18:16.651Z,24.10
2023-05-04T14:20:44.936Z,24.10
2023-05-04T14:23:12.981Z,24.70
2023-05-04T14:25:44.046Z,24.50
2023-05-04T14:28:11.922Z,24.70
2023-05-04T14:30:40.437Z,24.60
2023-05-04T14:33:08.913Z,24.80
2023-05-04T14:35:37.507Z,24.90
2023-05-04T14:38:05.383Z,25.80
2023-05-04T14:40:33.417Z,26.50
2023-05-04T14:43:03.948Z,26.60
2023-05-04T14:45:31.965Z,27.90
2023-05-04T14:48:00.142Z,27.60
2023-05-04T14:50:28.346Z,27.20
2023-05-04T14:52:56.692Z,27.30
2023-05-04T14:55:25.122Z,27.80
2023-05-04T14:57:53.204Z,27.20
2023-05-04T15:00:23.087Z,26.90
2023-05-04T15:02:51.231Z,27.80
2023-05-04T15:05:19.993Z,27.60
2023-05-04T15:07:48.243Z,28.10
2023-05-04T15:10:16.268Z,27.30
2023-05-04T15:12:44.991Z,28.30
2023-05-04T15:15:13.602Z,28.10
2023-05-04T15:17:43.631Z,27.60
2023-05-04T15:20:12.715Z,27.60
2023-05-04T15:22:41.026Z,27.20
2023-05-04T15:25:09.598Z,27.20
2023-05-04T15:27:37.522Z,27.40
2023-05-04T15:30:07.578Z,27.00
2023-05-04T15:32:35.722Z,27.60
2023-05-04T15:35:06.469Z,28.40
2023-05-04T15:37:35.026Z,28.60
2023-05-04T15:40:03.380Z,28.30
2023-05-04T15:42:31.388Z,28.00
2023-05-04T15:44:59.360Z,27.90
2023-05-04T15:47:27.337Z,27.90
2023-05-04T15:49:55.709Z,28.60
2023-05-04T15:52:25.379Z,29.20
2023-05-04T15:54:53.633Z,28.80
2023-05-04T15:57:21.599Z,28.30
2023-05-04T15:59:49.970Z,27.90
2023-05-04T16:02:18.384Z,27.60
2023-05-04T16:04:46.337Z,27.80
2023-05-04T16:07:15.000Z,27.80
2023-05-04T16:09:47.764Z,27.90
2023-05-04T16:12:15.863Z,28.00
2023-05-04T16:14:44.312Z,28.50
2023-05-04T16:17:12.329Z,27.90
2023-05-04T16:19:40.877Z,28.40
2023-05-04T16:22:09.197Z,28.20
2023-05-04T16:24:37.739Z,28.00
2023-05-04T16:27:07.848Z,28.20
2023-05-04T16:29:37.740Z,28.80
2023-05-04T16:32:06.340Z,28.50
2023-05-04T16:34:34.374Z,28.40
2023-05-04T16:37:02.640Z,28.60
2023-05-04T16:39:31.921Z,29.00
2023-05-04T16:42:00.009Z,28.70
2023-05-04T16:44:31.352Z,29.10
2023-05-04T16:46:59.274Z,28.90
2023-05-04T16:49:33.117Z,29.10
2023-05-04T16:52:01.042Z,29.20
2023-05-04T16:54:46.208Z,28.90
2023-05-04T16:57:47.488Z,29.40
2023-05-04T17:00:18.195Z,29.60
2023-05-04T17:02:48.242Z,29.40
2023-05-04T17:05:16.915Z,29.60
2023-05-04T17:07:45.512Z,29.70
2023-05-04T17:10:14.478Z,30.00
2023-05-04T17:12:43.470Z,30.00
2023-05-04T17:15:12.254Z,30.30
2023-05-04T17:17:42.784Z,30.50
2023-05-04T17:20:15.007Z,30.50
2023-05-04T17:22:43.576Z,30.50
2023-05-04T17:25:12.349Z,30.70
2023-05-04T17:27:40.831Z,30.90
2023-05-04T17:30:10.767Z,31.00
2023-05-04T17:32:41.351Z,31.00
2023-05-04T17:35:23.497Z,31.20
2023-05-04T17:37:56.768Z,31.30
2023-05-04T17:40:26.936Z,31.40
2023-05-04T17:42:57.882Z,31.50
2023-05-04T17:45:26.300Z,31.40
2023-05-04T17:47:57.352Z,31.40
2023-05-04T17:50:26.188Z,31.50
2023-05-04T17:53:01.969Z,31.90
2023-05-04T17:55:30.857Z,31.40
2023-05-04T17:58:24.655Z,31.50
2023-05-04T18:00:54.818Z,31.70
2023-05-04T18:03:50.103Z,31.80
2023-05-04T18:06:19.841Z,31.70
2023-05-04T18:08:48.411Z,31.60
2023-05-04T18:11:17.108Z,31.80
2023-05-04T18:13:45.233Z,31.80
2023-05-04T18:16:13.340Z,31.70
2023-05-04T18:18:45.061Z,31.60
2023-05-04T18:21:20.938Z,31.80
2023-05-04T18:23:49.485Z,31.80
2023-05-04T18:26:25.236Z,31.70
2023-05-04T18:28:55.703Z,32.70
2023-05-04T18:31:27.702Z,32.50
2023-05-04T18:33:55.832Z,32.20
2023-05-04T18:36:29.127Z,32.00
2023-05-04T18:38:58.955Z,32.00
2023-05-04T18:41:27.406Z,31.90
2023-05-04T18:43:56.149Z,31.90
2023-05-04T18:46:24.287Z,31.90
2023-05-04T18:48:52.950Z,31.90
2023-05-04T18:51:21.033Z,32.00
2023-05-04T18:53:50.638Z,31.90
2023-05-04T18:56:18.658Z,32.00
2023-05-04T18:58:46.725Z,32.00
2023-05-04T19:01:14.936Z,32.10
2023-05-04T19:03:45.087Z,32.10
2023-05-04T19:06:13.293Z,32.10
2023-05-04T19:08:41.675Z,32.20
2023-05-04T19:11:11.181Z,32.30
2023-05-04T19:13:39.152Z,32.30
2023-05-04T19:16:09.227Z,32.40
2023-05-04T19:18:37.370Z,32.40
2023-05-04T19:21:06.425Z,32.50
2023-05-04T19:23:34.498Z,32.50
2023-05-04T19:26:02.626Z,32.60
2023-05-04T19:28:32.592Z,32.70
2023-05-04T19:31:00.668Z,32.70
2023-05-04T19:33:40.441Z,32.80
2023-05-04T19:36:15.993Z,32.80
2023-05-04T19:38:43.948Z,32.90
2023-05-04T19:41:12.679Z,33.00
2023-05-04T19:43:42.763Z,33.00
2023-05-04T19:46:10.885Z,33.00
2023-05-04T19:48:39.641Z,33.10
2023-05-04T19:51:07.829Z,33.20
2023-05-04T19:53:35.873Z,33.20
2023-05-04T19:56:03.931Z,33.30
2023-05-04T19:58:32.152Z,33.30
2023-05-04T20:01:01.761Z,33.40
2023-05-04T20:03:29.904Z,33.50
2023-05-04T20:05:58.053Z,33.60
2023-05-04T20:08:26.857Z,33.60
2023-05-04T20:10:55.346Z,33.70
2023-05-04T20:13:23.276Z,33.70
2023-05-04T20:15:51.701Z,33.80
2023-05-04T20:18:21.137Z,33.90
2023-05-04T20:20:49.280Z,34.00
2023-05-04T20:23:18.272Z,34.10
2023-05-04T20:25:46.228Z,34.00
2023-05-04T20:28:14.117Z,34.10
2023-05-04T20:30:42.022Z,34.20
2023-05-04T20:33:10.007Z,34.20
2023-05-04T20:35:41.101Z,34.30
2023-05-04T20:38:09.256Z,34.30
2023-05-04T20:40:37.612Z,34.40
2023-05-04T20:43:05.560Z,34.40
2023-05-04T20:45:34.363Z,34.50
2023-05-04T20:48:03.964Z,34.50
2023-05-04T20:50:32.018Z,34.50
2023-05-04T20:53:02.197Z,34.50
2023-05-04T20:55:30.560Z,34.60
2023-05-04T20:57:58.512Z,34.60
2023-05-04T21:00:26.806Z,34.60
2023-05-04T21:02:55.431Z,34.70
2023-05-04T21:05:23.348Z,34.80
2023-05-04T21:07:52.293Z,35.40
2023-05-04T21:10:22.107Z,35.00
2023-05-04T21:12:50.258Z,35.00
2023-05-04T21:15:18.259Z,35.00
2023-05-04T21:17:47.197Z,35.00
2023-05-04T21:20:15.129Z,35.10
2023-05-04T21:22:43.161Z,35.10
2023-05-04T21:25:11.282Z,35.20
2023-05-04T21:27:41.637Z,35.10
2023-05-04T21:30:11.814Z,35.20
2023-05-04T21:32:39.728Z,35.20
2023-05-04T21:35:08.382Z,35.40
2023-05-04T21:37:36.468Z,35.30
2023-05-04T21:40:05.239Z,35.40
2023-05-04T21:42:33.241Z,35.40
2023-05-04T21:45:02.870Z,35.40
2023-05-04T21:47:30.806Z,35.40
2023-05-04T21:49:58.677Z,35.50
2023-05-04T21:52:27.006Z,35.50
2023-05-04T21:54:55.320Z,35.50
2023-05-04T21:57:23.878Z,35.60
2023-05-04T21:59:52.249Z,35.70
2023-05-04T22:02:21.844Z,35.60
2023-05-04T22:04:50.520Z,35.70
2023-05-04T22:07:18.429Z,35.80
2023-05-04T22:09:46.292Z,35.80
2023-05-04T22:12:14.328Z,35.90
2023-05-04T22:14:42.621Z,36.00
2023-05-04T22:17:10.625Z,36.00
2023-05-04T22:19:39.829Z,36.10
2023-05-04T22:22:07.678Z,36.20
2023-05-04T22:24:36.099Z,36.20
2023-05-04T22:27:04.453Z,36.30
2023-05-04T22:29:33.359Z,36.50
2023-05-04T22:32:01.546Z,36.60
2023-05-04T22:34:29.455Z,36.60
2023-05-04T22:36:58.868Z,36.60
2023-05-04T22:39:26.838Z,36.70
2023-05-04T22:41:54.834Z,36.70
2023-05-04T22:44:22.801Z,36.80
2023-05-04T22:46:50.651Z,37.00
2023-05-04T22:49:18.933Z,37.00
2023-05-04T22:51:46.939Z,37.00
2023-05-04T22:54:16.220Z,37.10
2023-05-04T22:56:44.117Z,37.30
2023-05-04T22:59:12.648Z,37.90
2023-05-04T23:01:43.631Z,42.20
2023-05-04T23:04:12.334Z,39.20
2023-05-04T23:06:40.296Z,41.00
2023-05-04T23:09:08.340Z,41.40
2023-05-04T23:11:37.901Z,41.50
2023-05-04T23:14:06.251Z,41.50
2023-05-04T23:16:34.372Z,41.30
2023-05-04T23:19:02.497Z,41.10
2023-05-04T23:21:31.177Z,41.00
2023-05-04T23:23:59.579Z,40.80
2023-05-04T23:26:27.869Z,40.80
2023-05-04T23:28:57.299Z,40.70
2023-05-04T23:31:25.957Z,40.60
2023-05-04T23:33:57.388Z,40.70
2023-05-04T23:36:25.425Z,40.60
2023-05-04T23:38:53.434Z,40.50
2023-05-04T23:41:21.483Z,40.50
2023-05-04T23:43:50.078Z,40.40
2023-05-04T23:46:19.531Z,40.40
2023-05-04T23:48:47.437Z,40.40
2023-05-04T23:51:15.410Z,40.50
2023-05-04T23:53:43.459Z,40.50
2023-05-04T23:56:13.046Z,40.40
2023-05-04T23:58:41.087Z,40.40
